»·PEaware :: N351CB KSAN-KHWD

N351CB :: KSAN-KHWD

FLIGHT INFORMATION

Flight Status: Arrived
Operator: Privately registered:
United States
More flights under this callsign
Pilot: Andrew K. (26905)
Aircraft: SOCATA TBM-900
(TBM9)
More flights by this aircraft type
Origin: KSAN San Diego Intl-Lindbergh
United States
Destination: KHWD Hayward Executive
United States
More flights between these airports :: More routes between these airports
Route: +PADRZ2 OROSZ COREZ RGOOD PXN PXN6
File this flight plan on PilotEdge
Remarks:
Altitude:
(Current/Filed)
25,000ft
Speed:
(Current/Filed)
205kts
Departed: 30-Jan-20 02:30 PM
Arrived: 30-Jan-20 04:11 PM
Distance/Time
Traveled:
382nm/1:41
Distance/Time
To Go:
Arrived

Flight Plot

Page will automatically refresh every two minutes.

Flight plan parsing failed; only flown route is shown


Map Options




Map Legend


Flown Route
Filed Route
Departure Airport
Arrival Airport
Navaid (VOR, NDB)
Fix

Horizontal Profiles

Position Reports

Time Latitude Longitude Heading Altitude Ground
Speed
30-Jan-20 14:00 32.732406 -117.176643 189 21ft 0kts
30-Jan-20 14:01 32.732406 -117.176643 189 21ft 0kts
30-Jan-20 14:01 32.732406 -117.176643 189 21ft 0kts
30-Jan-20 14:03 32.732406 -117.176643 189 21ft 0kts
30-Jan-20 14:03 32.732406 -117.176643 189 21ft 0kts
30-Jan-20 14:05 32.732406 -117.176643 189 21ft 0kts
30-Jan-20 14:05 32.732406 -117.176643 189 21ft 0kts
30-Jan-20 14:09 32.732407 -117.176643 189 21ft 0kts
30-Jan-20 14:10 32.732407 -117.176643 189 21ft 0kts
30-Jan-20 14:11 32.732407 -117.176643 189 21ft 0kts
30-Jan-20 14:12 32.732407 -117.176643 189 21ft 0kts
30-Jan-20 14:13 32.732407 -117.176643 189 21ft 0kts
30-Jan-20 14:14 32.732407 -117.176643 189 21ft 0kts
30-Jan-20 14:15 32.732407 -117.176643 189 21ft 0kts
30-Jan-20 14:16 32.732407 -117.176643 189 21ft 0kts
30-Jan-20 14:17 32.732407 -117.176643 189 21ft 0kts
30-Jan-20 14:18 32.732407 -117.176643 189 21ft 0kts
30-Jan-20 14:19 32.732407 -117.176643 189 21ft 0kts
30-Jan-20 14:20 32.732407 -117.176643 189 21ft 0kts
30-Jan-20 14:21 32.732407 -117.176643 189 21ft 0kts
30-Jan-20 14:22 32.732407 -117.176643 189 21ft 0kts
30-Jan-20 14:23 32.732406 -117.176643 189 21ft 0kts
30-Jan-20 14:24 32.732406 -117.176643 189 21ft 0kts
30-Jan-20 14:25 32.732406 -117.176643 189 21ft 0kts
30-Jan-20 14:26 32.732406 -117.176643 189 21ft 0kts
30-Jan-20 14:27 32.731235 -117.176321 77 19ft 11kts
30-Jan-20 14:28 32.730767 -117.175323 157 21ft 10kts
30-Jan-20 14:29 32.731652 -117.181758 285 13ft 101kts
30-Jan-20 14:30 32.745336 -117.217940 301 1833ft 123kts
30-Jan-20 14:31 32.763452 -117.251621 302 3828ft 121kts
30-Jan-20 14:32 32.781083 -117.284570 303 5653ft 117kts
30-Jan-20 14:33 32.799155 -117.317644 310 7160ft 127kts
30-Jan-20 14:34 32.821017 -117.351551 311 8666ft 131kts
30-Jan-20 14:35 32.843415 -117.386330 312 10050ft 135kts
30-Jan-20 14:36 32.866719 -117.422504 313 11536ft 141kts
30-Jan-20 14:37 32.890840 -117.459928 314 13537ft 144kts
30-Jan-20 14:38 32.914924 -117.497415 314 15239ft 144kts
30-Jan-20 14:39 32.939471 -117.535611 314 16587ft 147kts
30-Jan-20 14:40 32.964355 -117.574389 314 17856ft 148kts
30-Jan-20 14:41 32.989492 -117.613605 314 19025ft 150kts
30-Jan-20 14:42 33.015014 -117.653476 313 20109ft 152kts
30-Jan-20 14:43 33.040641 -117.693538 313 21109ft 153kts
30-Jan-20 14:44 33.067231 -117.732920 324 22031ft 150kts
30-Jan-20 14:45 33.100171 -117.766446 323 23142ft 160kts
30-Jan-20 14:46 33.134601 -117.801449 323 24027ft 179kts
30-Jan-20 14:47 33.177118 -117.844740 322 24021ft 219kts
30-Jan-20 14:48 33.227644 -117.894774 323 24017ft 248kts
30-Jan-20 14:49 33.282682 -117.948515 323 24016ft 259kts
30-Jan-20 14:50 33.338912 -118.003486 323 24011ft 263kts
30-Jan-20 14:51 33.395644 -118.059038 323 24002ft 264kts
30-Jan-20 14:52 33.452678 -118.114977 323 23994ft 264kts
30-Jan-20 14:53 33.508619 -118.172130 316 23985ft 266kts
30-Jan-20 14:54 33.566224 -118.226820 323 23983ft 264kts
30-Jan-20 14:55 33.631042 -118.266510 336 23977ft 262kts
30-Jan-20 14:56 33.697508 -118.303136 336 23977ft 262kts
30-Jan-20 14:57 33.763932 -118.339496 337 23976ft 262kts
30-Jan-20 14:58 33.831348 -118.373516 337 23977ft 262kts
30-Jan-20 14:59 33.898565 -118.407452 337 23976ft 262kts
30-Jan-20 15:00 33.965579 -118.441345 337 23974ft 261kts
30-Jan-20 15:01 34.032512 -118.475263 337 24097ft 257kts
30-Jan-20 15:02 34.098521 -118.508594 338 24127ft 259kts
30-Jan-20 15:03 34.165468 -118.542253 338 24126ft 261kts
30-Jan-20 15:04 34.232902 -118.576075 338 24113ft 262kts
30-Jan-20 15:05 34.295732 -118.607505 338 24112ft 262kts
30-Jan-20 15:06 34.363235 -118.641222 338 24114ft 262kts
30-Jan-20 15:07 34.430573 -118.674841 337 24122ft 262kts
30-Jan-20 15:08 34.498136 -118.708589 337 24115ft 262kts
30-Jan-20 15:09 34.565442 -118.742273 337 24115ft 262kts
30-Jan-20 15:10 34.628366 -118.787023 330 24078ft 263kts
30-Jan-20 15:11 34.691208 -118.833033 329 24029ft 264kts
30-Jan-20 15:12 34.741934 -118.870699 329 24024ft 264kts
30-Jan-20 15:13 34.804428 -118.917219 329 24072ft 263kts
30-Jan-20 15:14 34.866978 -118.963868 328 24138ft 263kts
30-Jan-20 15:15 34.929431 -119.010545 329 24197ft 264kts
30-Jan-20 15:16 34.991884 -119.057298 329 24233ft 264kts
30-Jan-20 15:17 35.054512 -119.104257 329 24231ft 264kts
30-Jan-20 15:18 35.117231 -119.151353 330 24240ft 264kts
30-Jan-20 15:19 35.179979 -119.198573 330 24239ft 265kts
30-Jan-20 15:20 35.242700 -119.245866 330 24237ft 263kts
30-Jan-20 15:21 35.304130 -119.292258 330 24237ft 257kts
30-Jan-20 15:22 35.364666 -119.338059 330 24237ft 256kts
30-Jan-20 15:23 35.425748 -119.384359 330 24237ft 259kts
30-Jan-20 15:24 35.487845 -119.431515 329 24239ft 267kts
30-Jan-20 15:25 35.551461 -119.479923 329 24236ft 271kts
30-Jan-20 15:26 35.610277 -119.538524 322 24234ft 273kts
30-Jan-20 15:27 35.668721 -119.598195 322 24234ft 272kts
30-Jan-20 15:28 35.726971 -119.657791 322 24239ft 272kts
30-Jan-20 15:29 35.784969 -119.717236 322 24248ft 272kts
30-Jan-20 15:30 35.843152 -119.776997 322 24260ft 272kts
30-Jan-20 15:31 35.901158 -119.836688 322 24258ft 272kts
30-Jan-20 15:32 35.957106 -119.899729 319 24255ft 272kts
30-Jan-20 15:33 36.012735 -119.963370 319 24252ft 272kts
30-Jan-20 15:34 36.068240 -120.027001 319 24250ft 272kts
30-Jan-20 15:35 36.125526 -120.092819 319 23457ft 293kts
30-Jan-20 15:36 36.185214 -120.161559 319 22364ft 286kts
30-Jan-20 15:37 36.241175 -120.226094 320 21864ft 276kts
30-Jan-20 15:38 36.298006 -120.291810 320 20680ft 281kts
30-Jan-20 15:39 36.330568 -120.329529 320 20362ft 271kts
30-Jan-20 15:40 36.383758 -120.391207 320 20362ft 255kts
30-Jan-20 15:41 36.434990 -120.450738 320 20364ft 250kts
30-Jan-20 15:42 36.485598 -120.509651 320 20364ft 248kts
30-Jan-20 15:43 36.535911 -120.568342 320 20367ft 248kts
30-Jan-20 15:44 36.586117 -120.627018 320 20369ft 247kts
30-Jan-20 15:45 36.634719 -120.683918 319 20373ft 247kts
30-Jan-20 15:46 36.668490 -120.723521 319 20371ft 248kts
30-Jan-20 15:47 36.720936 -120.784878 320 19489ft 270kts
30-Jan-20 15:48 36.776958 -120.848862 320 18202ft 279kts
30-Jan-20 15:49 36.834257 -120.914403 320 16991ft 276kts
30-Jan-20 15:50 36.890594 -120.978970 320 15848ft 277kts
30-Jan-20 15:51 36.947570 -121.044425 320 14488ft 277kts
30-Jan-20 15:52 37.002907 -121.108122 321 13106ft 263kts
30-Jan-20 15:53 37.055723 -121.168987 321 11815ft 254kts
30-Jan-20 15:54 37.107231 -121.228472 320 10599ft 250kts
30-Jan-20 15:55 37.156953 -121.286072 320 10160ft 232kts
30-Jan-20 15:56 37.204881 -121.341638 320 9526ft 238kts
30-Jan-20 15:58 37.253456 -121.398090 319 8798ft 240kts
30-Jan-20 15:59 37.302572 -121.455286 319 8074ft 241kts
30-Jan-20 16:00 37.351067 -121.511822 319 7231ft 233kts
30-Jan-20 16:01 37.398233 -121.566891 319 6227ft 231kts
30-Jan-20 16:02 37.435878 -121.628253 303 6023ft 214kts
30-Jan-20 16:03 37.465029 -121.692242 302 6025ft 208kts
30-Jan-20 16:04 37.493726 -121.755457 302 6022ft 207kts
30-Jan-20 16:05 37.522367 -121.818670 302 6011ft 208kts
30-Jan-20 16:06 37.551348 -121.882752 302 5123ft 209kts
30-Jan-20 16:07 37.580127 -121.946508 301 4051ft 208kts
30-Jan-20 16:08 37.606435 -122.004942 301 3293ft 167kts
30-Jan-20 16:09 37.629654 -122.053966 296 1976ft 164kts
30-Jan-20 16:10 37.647300 -122.096607 294 464ft 94kts
30-Jan-20 16:11 37.658446 -122.122029 299 35ft 36kts
30-Jan-20 16:12 37.659667 -122.122727 359 33ft 0kts
30-Jan-20 16:13 37.661524 -122.121966 323 34ft 12kts
30-Jan-20 16:14 37.662799 -122.122643 125 34ft 10kts
30-Jan-20 16:15 37.662523 -122.122319 206 34ft 0kts
30-Jan-20 16:15 37.662523 -122.122319 206 34ft 0kts
30-Jan-20 16:17 37.662523 -122.122319 206 34ft 0kts
30-Jan-20 16:17 37.662523 -122.122319 206 34ft 0kts
30-Jan-20 16:19 37.662523 -122.122319 206 34ft 0kts
30-Jan-20 16:20 37.662523 -122.122319 206 34ft 0kts
30-Jan-20 16:21 37.662523 -122.122319 206 34ft 0kts
30-Jan-20 16:21 37.662523 -122.122319 206 34ft 0kts
30-Jan-20 16:23 37.662523 -122.122319 206 34ft 0kts
30-Jan-20 16:23 37.662523 -122.122319 206 34ft 0kts
30-Jan-20 16:24 37.662523 -122.122319 206 34ft 0kts
30-Jan-20 16:25 37.662523 -122.122319 206 34ft 0kts

Navigation Log

Ident Type
Flight plan parsing failed, navigation log unavailable